sensor_id;sensor_type;location;lat;lon;timestamp;temperature;humidity
28175;SHT30;59417;44.788;10.334;2024-01-15T00:00:45;3.74;83.10
28175;SHT30;59417;44.788;10.334;2024-01-15T00:03:17;3.63;83.61
28175;SHT30;59417;44.788;10.334;2024-01-15T00:05:44;3.67;83.98
28175;SHT30;59417;44.788;10.334;2024-01-15T00:08:12;3.70;84.05
28175;SHT30;59417;44.788;10.334;2024-01-15T00:10:45;3.87;83.97
28175;SHT30;59417;44.788;10.334;2024-01-15T00:13:11;3.97;83.67
28175;SHT30;59417;44.788;10.334;2024-01-15T00:15:39;4.08;83.29
28175;SHT30;59417;44.788;10.334;2024-01-15T00:18:07;4.15;81.95
28175;SHT30;59417;44.788;10.334;2024-01-15T00:20:37;3.98;82.33
28175;SHT30;59417;44.788;10.334;2024-01-15T00:23:06;3.91;82.80
28175;SHT30;59417;44.788;10.334;2024-01-15T00:25:35;3.91;83.07
28175;SHT30;59417;44.788;10.334;2024-01-15T00:28:05;3.97;82.76
28175;SHT30;59417;44.788;10.334;2024-01-15T00:30:31;4.07;82.42
28175;SHT30;59417;44.788;10.334;2024-01-15T00:32:58;4.21;81.72
28175;SHT30;59417;44.788;10.334;2024-01-15T00:35:25;3.90;82.37
28175;SHT30;59417;44.788;10.334;2024-01-15T00:37:51;3.90;82.73
28175;SHT30;59417;44.788;10.334;2024-01-15T00:40:20;3.95;83.37
28175;SHT30;59417;44.788;10.334;2024-01-15T00:42:47;4.15;81.55
28175;SHT30;59417;44.788;10.334;2024-01-15T00:45:15;3.90;83.02
28175;SHT30;59417;44.788;10.334;2024-01-15T00:47:44;4.21;82.08
28175;SHT30;59417;44.788;10.334;2024-01-15T00:50:11;3.97;82.47
28175;SHT30;59417;44.788;10.334;2024-01-15T00:52:38;3.90;82.89
28175;SHT30;59417;44.788;10.334;2024-01-15T00:55:05;4.05;82.56
28175;SHT30;59417;44.788;10.334;2024-01-15T00:57:31;4.11;81.73
28175;SHT30;59417;44.788;10.334;2024-01-15T00:59:59;4.10;81.59
28175;SHT30;59417;44.788;10.334;2024-01-15T01:02:30;4.02;81.87
28175;SHT30;59417;44.788;10.334;2024-01-15T01:04:57;3.97;82.36
28175;SHT30;59417;44.788;10.334;2024-01-15T01:07:24;3.98;82.15
28175;SHT30;59417;44.788;10.334;2024-01-15T01:09:51;3.76;83.47
28175;SHT30;59417;44.788;10.334;2024-01-15T01:12:21;4.01;82.74
28175;SHT30;59417;44.788;10.334;2024-01-15T01:14:50;4.12;81.95
28175;SHT30;59417;44.788;10.334;2024-01-15T01:17:16;3.94;82.50
28175;SHT30;59417;44.788;10.334;2024-01-15T01:19:45;4.07;82.39
28175;SHT30;59417;44.788;10.334;2024-01-15T01:22:12;4.02;82.37
28175;SHT30;59417;44.788;10.334;2024-01-15T01:24:38;4.00;82.96
28175;SHT30;59417;44.788;10.334;2024-01-15T01:27:05;3.98;82.45
28175;SHT30;59417;44.788;10.334;2024-01-15T01:29:32;3.93;82.98
28175;SHT30;59417;44.788;10.334;2024-01-15T01:31:59;3.93;83.24
28175;SHT30;59417;44.788;10.334;2024-01-15T01:34:26;3.89;83.01
28175;SHT30;59417;44.788;10.334;2024-01-15T01:36:58;3.64;84.10
28175;SHT30;59417;44.788;10.334;2024-01-15T01:39:45;3.56;85.31
28175;SHT30;59417;44.788;10.334;2024-01-15T01:42:12;3.93;83.51
28175;SHT30;59417;44.788;10.334;2024-01-15T01:44:39;3.97;83.36
28175;SHT30;59417;44.788;10.334;2024-01-15T01:47:06;3.94;83.29
28175;SHT30;59417;44.788;10.334;2024-01-15T01:49:37;3.98;82.88
28175;SHT30;59417;44.788;10.334;2024-01-15T01:52:05;3.94;83.11
28175;SHT30;59417;44.788;10.334;2024-01-15T01:54:48;4.04;82.20
28175;SHT30;59417;44.788;10.334;2024-01-15T01:57:16;3.73;83.55
28175;SHT30;59417;44.788;10.334;2024-01-15T01:59:43;3.66;84.58
28175;SHT30;59417;44.788;10.334;2024-01-15T02:02:11;3.91;83.12
28175;SHT30;59417;44.788;10.334;2024-01-15T02:04:38;3.71;84.14
28175;SHT30;59417;44.788;10.334;2024-01-15T02:07:11;4.07;82.86
28175;SHT30;59417;44.788;10.334;2024-01-15T02:09:41;3.86;83.54
28175;SHT30;59417;44.788;10.334;2024-01-15T02:12:09;3.95;83.98
28175;SHT30;59417;44.788;10.334;2024-01-15T02:14:36;3.95;82.69
28175;SHT30;59417;44.788;10.334;2024-01-15T02:17:02;3.87;83.56
28175;SHT30;59417;44.788;10.334;2024-01-15T02:19:29;4.00;82.41
28175;SHT30;59417;44.788;10.334;2024-01-15T02:21:55;3.77;83.72
28175;SHT30;59417;44.788;10.334;2024-01-15T02:24:24;3.83;84.46
28175;SHT30;59417;44.788;10.334;2024-01-15T02:26:54;3.84;83.51
28175;SHT30;59417;44.788;10.334;2024-01-15T02:29:21;3.73;84.46
28175;SHT30;59417;44.788;10.334;2024-01-15T02:31:49;3.90;83.96
28175;SHT30;59417;44.788;10.334;2024-01-15T02:34:18;4.07;82.86
28175;SHT30;59417;44.788;10.334;2024-01-15T02:36:45;4.07;82.95
28175;SHT30;59417;44.788;10.334;2024-01-15T02:39:12;4.11;82.49
28175;SHT30;59417;44.788;10.334;2024-01-15T02:41:38;4.04;83.01
28175;SHT30;59417;44.788;10.334;2024-01-15T02:44:08;4.24;82.34
28175;SHT30;59417;44.788;10.334;2024-01-15T02:46:38;4.14;83.20
28175;SHT30;59417;44.788;10.334;2024-01-15T02:49:18;3.91;83.44
28175;SHT30;59417;44.788;10.334;2024-01-15T02:51:44;3.66;84.42
28175;SHT30;59417;44.788;10.334;2024-01-15T02:54:13;3.67;84.77
28175;SHT30;59417;44.788;10.334;2024-01-15T02:56:40;3.91;83.45
28175;SHT30;59417;44.788;10.334;2024-01-15T02:59:07;4.07;82.91
28175;SHT30;59417;44.788;10.334;2024-01-15T03:01:36;3.79;84.05
28175;SHT30;59417;44.788;10.334;2024-01-15T03:04:03;3.73;84.57
28175;SHT30;59417;44.788;10.334;2024-01-15T03:06:29;3.73;84.74
28175;SHT30;59417;44.788;10.334;2024-01-15T03:08:58;4.10;83.48
28175;SHT30;59417;44.788;10.334;2024-01-15T03:11:25;4.01;83.51
28175;SHT30;59417;44.788;10.334;2024-01-15T03:13:52;4.07;83.05
28175;SHT30;59417;44.788;10.334;2024-01-15T03:16:22;4.25;82.00
28175;SHT30;59417;44.788;10.334;2024-01-15T03:18:51;4.15;82.23
28175;SHT30;59417;44.788;10.334;2024-01-15T03:21:17;3.98;82.92
28175;SHT30;59417;44.788;10.334;2024-01-15T03:23:44;4.01;83.64
28175;SHT30;59417;44.788;10.334;2024-01-15T03:26:14;4.01;83.57
28175;SHT30;59417;44.788;10.334;2024-01-15T03:28:44;3.98;82.92
28175;SHT30;59417;44.788;10.334;2024-01-15T03:31:15;4.18;81.88
28175;SHT30;59417;44.788;10.334;2024-01-15T03:33:42;4.18;82.01
28175;SHT30;59417;44.788;10.334;2024-01-15T03:36:09;4.08;82.28
28175;SHT30;59417;44.788;10.334;2024-01-15T03:38:40;3.97;82.51
28175;SHT30;59417;44.788;10.334;2024-01-15T03:41:08;3.98;82.96
28175;SHT30;59417;44.788;10.334;2024-01-15T03:43:40;3.89;83.16
28175;SHT30;59417;44.788;10.334;2024-01-15T03:46:07;3.76;83.77
28175;SHT30;59417;44.788;10.334;2024-01-15T03:48:36;3.71;84.06
28175;SHT30;59417;44.788;10.334;2024-01-15T03:51:08;3.64;84.19
28175;SHT30;59417;44.788;10.334;2024-01-15T03:53:38;3.63;85.15
28175;SHT30;59417;44.788;10.334;2024-01-15T03:56:14;3.84;84.03
28175;SHT30;59417;44.788;10.334;2024-01-15T03:58:40;3.60;84.45
28175;SHT30;59417;44.788;10.334;2024-01-15T04:01:10;3.84;84.00
28175;SHT30;59417;44.788;10.334;2024-01-15T04:03:37;3.80;84.01
28175;SHT30;59417;44.788;10.334;2024-01-15T04:06:04;3.59;84.52
28175;SHT30;59417;44.788;10.334;2024-01-15T04:08:34;3.42;85.34
28175;SHT30;59417;44.788;10.334;2024-01-15T04:11:06;3.33;86.00
28175;SHT30;59417;44.788;10.334;2024-01-15T04:13:33;3.19;86.23
28175;SHT30;59417;44.788;10.334;2024-01-15T04:16:00;3.22;86.22
28175;SHT30;59417;44.788;10.334;2024-01-15T04:18:29;3.26;86.58
28175;SHT30;59417;44.788;10.334;2024-01-15T04:21:04;3.06;86.70
28175;SHT30;59417;44.788;10.334;2024-01-15T04:23:36;3.12;86.84
28175;SHT30;59417;44.788;10.334;2024-01-15T04:26:03;3.06;86.83
28175;SHT30;59417;44.788;10.334;2024-01-15T04:28:30;3.12;86.47
28175;SHT30;59417;44.788;10.334;2024-01-15T04:30:56;3.08;86.58
28175;SHT30;59417;44.788;10.334;2024-01-15T04:33:26;3.08;87.58
28175;SHT30;59417;44.788;10.334;2024-01-15T04:35:56;3.26;85.99
28175;SHT30;59417;44.788;10.334;2024-01-15T04:38:24;3.25;85.69
28175;SHT30;59417;44.788;10.334;2024-01-15T04:40:51;3.19;85.70
28175;SHT30;59417;44.788;10.334;2024-01-15T04:43:21;3.23;85.81
28175;SHT30;59417;44.788;10.334;2024-01-15T04:45:50;3.35;85.43
28175;SHT30;59417;44.788;10.334;2024-01-15T04:48:17;3.25;85.73
28175;SHT30;59417;44.788;10.334;2024-01-15T04:50:47;3.33;85.47
28175;SHT30;59417;44.788;10.334;2024-01-15T04:53:14;3.32;85.28
28175;SHT30;59417;44.788;10.334;2024-01-15T04:55:40;3.23;86.02
28175;SHT30;59417;44.788;10.334;2024-01-15T04:58:11;3.32;85.41
28175;SHT30;59417;44.788;10.334;2024-01-15T05:00:40;3.15;85.34
28175;SHT30;59417;44.788;10.334;2024-01-15T05:03:06;2.98;86.27
28175;SHT30;59417;44.788;10.334;2024-01-15T05:05:34;2.87;86.22
28175;SHT30;59417;44.788;10.334;2024-01-15T05:08:02;2.64;87.11
28175;SHT30;59417;44.788;10.334;2024-01-15T05:10:31;2.65;87.57
28175;SHT30;59417;44.788;10.334;2024-01-15T05:13:01;2.67;86.91
28175;SHT30;59417;44.788;10.334;2024-01-15T05:15:32;2.53;87.44
28175;SHT30;59417;44.788;10.334;2024-01-15T05:17:59;2.57;87.43
28175;SHT30;59417;44.788;10.334;2024-01-15T05:20:32;2.50;87.84
28175;SHT30;59417;44.788;10.334;2024-01-15T05:23:04;2.43;87.57
28175;SHT30;59417;44.788;10.334;2024-01-15T05:25:40;2.46;87.50
28175;SHT30;59417;44.788;10.334;2024-01-15T05:28:07;2.49;86.77
28175;SHT30;59417;44.788;10.334;2024-01-15T05:30:34;2.42;86.61
28175;SHT30;59417;44.788;10.334;2024-01-15T05:33:01;2.40;87.00
28175;SHT30;59417;44.788;10.334;2024-01-15T05:35:37;2.51;86.33
28175;SHT30;59417;44.788;10.334;2024-01-15T05:38:04;2.54;87.04
28175;SHT30;59417;44.788;10.334;2024-01-15T05:40:31;2.65;85.48
28175;SHT30;59417;44.788;10.334;2024-01-15T05:42:58;2.73;85.40
28175;SHT30;59417;44.788;10.334;2024-01-15T05:45:29;2.74;86.15
28175;SHT30;59417;44.788;10.334;2024-01-15T05:47:56;2.96;85.10
28175;SHT30;59417;44.788;10.334;2024-01-15T05:50:23;2.92;84.64
28175;SHT30;59417;44.788;10.334;2024-01-15T05:52:54;3.06;84.02
28175;SHT30;59417;44.788;10.334;2024-01-15T05:55:20;3.02;84.11
28175;SHT30;59417;44.788;10.334;2024-01-15T05:57:47;3.02;83.84
28175;SHT30;59417;44.788;10.334;2024-01-15T06:00:14;2.89;84.44
28175;SHT30;59417;44.788;10.334;2024-01-15T06:02:44;3.02;84.50
28175;SHT30;59417;44.788;10.334;2024-01-15T06:05:12;3.02;84.11
28175;SHT30;59417;44.788;10.334;2024-01-15T06:07:39;2.91;84.73
28175;SHT30;59417;44.788;10.334;2024-01-15T06:10:09;2.95;84.34
28175;SHT30;59417;44.788;10.334;2024-01-15T06:12:36;3.04;84.08
28175;SHT30;59417;44.788;10.334;2024-01-15T06:15:03;3.04;83.89
28175;SHT30;59417;44.788;10.334;2024-01-15T06:17:31;2.89;84.23
28175;SHT30;59417;44.788;10.334;2024-01-15T06:19:58;2.80;84.66
28175;SHT30;59417;44.788;10.334;2024-01-15T06:22:27;2.75;84.69
28175;SHT30;59417;44.788;10.334;2024-01-15T06:25:02;2.84;85.18
28175;SHT30;59417;44.788;10.334;2024-01-15T06:27:34;2.95;84.63
28175;SHT30;59417;44.788;10.334;2024-01-15T06:30:01;3.01;84.16
28175;SHT30;59417;44.788;10.334;2024-01-15T06:32:31;2.98;84.60
28175;SHT30;59417;44.788;10.334;2024-01-15T06:35:05;2.95;83.97
28175;SHT30;59417;44.788;10.334;2024-01-15T06:37:32;2.98;84.44
28175;SHT30;59417;44.788;10.334;2024-01-15T06:39:58;2.95;84.21
28175;SHT30;59417;44.788;10.334;2024-01-15T06:42:28;2.81;84.31
28175;SHT30;59417;44.788;10.334;2024-01-15T06:44:56;2.87;84.60
28175;SHT30;59417;44.788;10.334;2024-01-15T06:47:37;2.96;85.14
28175;SHT30;59417;44.788;10.334;2024-01-15T06:50:11;3.01;84.40
28175;SHT30;59417;44.788;10.334;2024-01-15T06:52:46;2.87;84.38
28175;SHT30;59417;44.788;10.334;2024-01-15T06:55:19;2.78;85.65
28175;SHT30;59417;44.788;10.334;2024-01-15T06:57:49;2.99;85.07
28175;SHT30;59417;44.788;10.334;2024-01-15T07:00:22;2.94;84.26
28175;SHT30;59417;44.788;10.334;2024-01-15T07:02:52;3.01;84.45
28175;SHT30;59417;44.788;10.334;2024-01-15T07:05:21;3.05;83.84
28175;SHT30;59417;44.788;10.334;2024-01-15T07:07:52;3.08;83.61
28175;SHT30;59417;44.788;10.334;2024-01-15T07:10:31;3.12;83.50
28175;SHT30;59417;44.788;10.334;2024-01-15T07:13:05;3.11;83.66
28175;SHT30;59417;44.788;10.334;2024-01-15T07:15:34;3.05;84.08
28175;SHT30;59417;44.788;10.334;2024-01-15T07:18:34;2.94;85.06
28175;SHT30;59417;44.788;10.334;2024-01-15T07:21:07;3.04;84.44
28175;SHT30;59417;44.788;10.334;2024-01-15T07:23:49;3.12;83.72
28175;SHT30;59417;44.788;10.334;2024-01-15T07:26:52;3.23;83.92
28175;SHT30;59417;44.788;10.334;2024-01-15T07:29:27;3.28;83.64
28175;SHT30;59417;44.788;10.334;2024-01-15T07:32:33;3.20;83.91
28175;SHT30;59417;44.788;10.334;2024-01-15T07:35:30;3.33;83.99
28175;SHT30;59417;44.788;10.334;2024-01-15T07:38:31;3.22;83.91
28175;SHT30;59417;44.788;10.334;2024-01-15T07:41:15;3.18;84.69
28175;SHT30;59417;44.788;10.334;2024-01-15T07:43:57;3.16;84.69
28175;SHT30;59417;44.788;10.334;2024-01-15T07:47:25;3.08;85.26
28175;SHT30;59417;44.788;10.334;2024-01-15T07:50:25;3.02;85.29
28175;SHT30;59417;44.788;10.334;2024-01-15T07:53:40;3.08;85.00
28175;SHT30;59417;44.788;10.334;2024-01-15T07:56:59;3.15;85.04
28175;SHT30;59417;44.788;10.334;2024-01-15T08:00:32;3.20;85.02
28175;SHT30;59417;44.788;10.334;2024-01-15T08:03:22;3.29;84.63
28175;SHT30;59417;44.788;10.334;2024-01-15T08:06:11;3.20;84.83
28175;SHT30;59417;44.788;10.334;2024-01-15T08:08:58;3.25;84.95
28175;SHT30;59417;44.788;10.334;2024-01-15T08:12:12;3.32;84.79
28175;SHT30;59417;44.788;10.334;2024-01-15T08:15:11;3.36;85.11
28175;SHT30;59417;44.788;10.334;2024-01-15T08:17:43;3.50;84.68
28175;SHT30;59417;44.788;10.334;2024-01-15T08:20:12;3.52;84.53
28175;SHT30;59417;44.788;10.334;2024-01-15T08:22:42;3.53;84.43
28175;SHT30;59417;44.788;10.334;2024-01-15T08:25:14;3.59;84.03
28175;SHT30;59417;44.788;10.334;2024-01-15T08:27:52;3.62;84.21
28175;SHT30;59417;44.788;10.334;2024-01-15T08:30:23;3.62;83.90
28175;SHT30;59417;44.788;10.334;2024-01-15T08:32:57;3.63;83.83
28175;SHT30;59417;44.788;10.334;2024-01-15T08:35:26;3.60;84.03
28175;SHT30;59417;44.788;10.334;2024-01-15T08:37:54;3.64;83.91
28175;SHT30;59417;44.788;10.334;2024-01-15T08:40:29;3.70;84.25
28175;SHT30;59417;44.788;10.334;2024-01-15T08:42:56;3.77;83.79
28175;SHT30;59417;44.788;10.334;2024-01-15T08:45:25;3.81;83.43
28175;SHT30;59417;44.788;10.334;2024-01-15T08:47:51;3.79;83.72
28175;SHT30;59417;44.788;10.334;2024-01-15T08:50:27;3.86;83.81
28175;SHT30;59417;44.788;10.334;2024-01-15T08:52:59;3.84;83.60
28175;SHT30;59417;44.788;10.334;2024-01-15T08:55:29;3.84;83.67
28175;SHT30;59417;44.788;10.334;2024-01-15T08:57:59;3.86;83.87
28175;SHT30;59417;44.788;10.334;2024-01-15T09:00:31;3.97;84.09
28175;SHT30;59417;44.788;10.334;2024-01-15T09:02:58;3.91;83.83
28175;SHT30;59417;44.788;10.334;2024-01-15T09:05:31;3.90;83.87
28175;SHT30;59417;44.788;10.334;2024-01-15T09:07:58;3.93;84.05
28175;SHT30;59417;44.788;10.334;2024-01-15T09:10:31;3.97;83.79
28175;SHT30;59417;44.788;10.334;2024-01-15T09:13:06;4.04;84.11
28175;SHT30;59417;44.788;10.334;2024-01-15T09:15:39;4.08;83.36
28175;SHT30;59417;44.788;10.334;2024-01-15T09:18:09;4.18;83.61
28175;SHT30;59417;44.788;10.334;2024-01-15T09:20:38;4.21;83.41
28175;SHT30;59417;44.788;10.334;2024-01-15T09:23:08;4.20;83.22
28175;SHT30;59417;44.788;10.334;2024-01-15T09:25:40;4.24;83.34
28175;SHT30;59417;44.788;10.334;2024-01-15T09:28:18;4.25;83.11
28175;SHT30;59417;44.788;10.334;2024-01-15T09:30:47;4.22;83.09
28175;SHT30;59417;44.788;10.334;2024-01-15T09:33:13;4.28;83.56
28175;SHT30;59417;44.788;10.334;2024-01-15T09:35:40;4.32;83.30
28175;SHT30;59417;44.788;10.334;2024-01-15T09:38:07;4.44;82.90
28175;SHT30;59417;44.788;10.334;2024-01-15T09:40:38;4.44;82.54
28175;SHT30;59417;44.788;10.334;2024-01-15T09:43:07;4.42;82.58
28175;SHT30;59417;44.788;10.334;2024-01-15T09:45:33;4.42;82.64
28175;SHT30;59417;44.788;10.334;2024-01-15T09:48:02;4.58;82.18
28175;SHT30;59417;44.788;10.334;2024-01-15T09:50:28;4.48;82.16
28175;SHT30;59417;44.788;10.334;2024-01-15T09:52:59;4.65;81.86
28175;SHT30;59417;44.788;10.334;2024-01-15T09:55:37;4.68;81.48
28175;SHT30;59417;44.788;10.334;2024-01-15T09:58:06;4.72;81.13
28175;SHT30;59417;44.788;10.334;2024-01-15T10:09:39;4.80;80.49
28175;SHT30;59417;44.788;10.334;2024-01-15T10:12:20;4.89;80.37
28175;SHT30;59417;44.788;10.334;2024-01-15T10:15:46;5.06;79.71
28175;SHT30;59417;44.788;10.334;2024-01-15T10:18:35;5.16;80.41
28175;SHT30;59417;44.788;10.334;2024-01-15T10:21:07;5.37;79.27
28175;SHT30;59417;44.788;10.334;2024-01-15T10:23:36;5.51;79.35
28175;SHT30;59417;44.788;10.334;2024-01-15T10:37:41;5.78;77.25
28175;SHT30;59417;44.788;10.334;2024-01-15T10:40:58;5.74;78.25
28175;SHT30;59417;44.788;10.334;2024-01-15T10:44:32;5.96;77.79
28175;SHT30;59417;44.788;10.334;2024-01-15T10:47:25;6.09;76.20
28175;SHT30;59417;44.788;10.334;2024-01-15T10:51:04;6.20;76.97
28175;SHT30;59417;44.788;10.334;2024-01-15T10:57:17;6.47;75.45
28175;SHT30;59417;44.788;10.334;2024-01-15T10:59:54;6.67;75.02
28175;SHT30;59417;44.788;10.334;2024-01-15T11:03:34;6.87;75.39
28175;SHT30;59417;44.788;10.334;2024-01-15T11:06:29;7.09;73.38
28175;SHT30;59417;44.788;10.334;2024-01-15T11:09:46;7.06;72.89
28175;SHT30;59417;44.788;10.334;2024-01-15T11:18:08;7.35;72.52
28175;SHT30;59417;44.788;10.334;2024-01-15T11:20:38;7.51;72.42
28175;SHT30;59417;44.788;10.334;2024-01-15T11:23:07;7.56;71.60
28175;SHT30;59417;44.788;10.334;2024-01-15T11:25:38;7.39;72.28
28175;SHT30;59417;44.788;10.334;2024-01-15T11:28:08;7.47;72.25
28175;SHT30;59417;44.788;10.334;2024-01-15T11:30:37;7.23;73.18
28175;SHT30;59417;44.788;10.334;2024-01-15T11:33:03;6.99;73.93
28175;SHT30;59417;44.788;10.334;2024-01-15T11:35:48;7.08;73.41
28175;SHT30;59417;44.788;10.334;2024-01-15T11:38:29;7.12;73.29
28175;SHT30;59417;44.788;10.334;2024-01-15T11:40:58;7.27;73.60
28175;SHT30;59417;44.788;10.334;2024-01-15T11:43:28;7.50;74.27
28175;SHT30;59417;44.788;10.334;2024-01-15T11:46:04;7.70;71.87
28175;SHT30;59417;44.788;10.334;2024-01-15T11:48:46;7.32;72.59
28175;SHT30;59417;44.788;10.334;2024-01-15T11:51:19;7.57;72.36
28175;SHT30;59417;44.788;10.334;2024-01-15T11:53:54;7.42;71.72
28175;SHT30;59417;44.788;10.334;2024-01-15T11:56:23;7.43;72.65
28175;SHT30;59417;44.788;10.334;2024-01-15T11:58:52;7.51;72.12
28175;SHT30;59417;44.788;10.334;2024-01-15T12:01:25;7.46;71.82
28175;SHT30;59417;44.788;10.334;2024-01-15T12:03:54;7.49;72.27
28175;SHT30;59417;44.788;10.334;2024-01-15T12:06:32;7.68;72.71
28175;SHT30;59417;44.788;10.334;2024-01-15T12:09:10;7.95;73.39
28175;SHT30;59417;44.788;10.334;2024-01-15T12:11:44;8.20;72.79
28175;SHT30;59417;44.788;10.334;2024-01-15T12:14:11;8.39;71.86
28175;SHT30;59417;44.788;10.334;2024-01-15T12:16:38;8.54;69.72
28175;SHT30;59417;44.788;10.334;2024-01-15T12:19:11;8.53;69.74
28175;SHT30;59417;44.788;10.334;2024-01-15T12:21:41;8.60;70.89
28175;SHT30;59417;44.788;10.334;2024-01-15T12:24:09;8.69;68.89
28175;SHT30;59417;44.788;10.334;2024-01-15T12:26:35;8.69;69.94
28175;SHT30;59417;44.788;10.334;2024-01-15T12:29:12;8.74;69.62
28175;SHT30;59417;44.788;10.334;2024-01-15T12:31:41;8.89;69.39
28175;SHT30;59417;44.788;10.334;2024-01-15T12:34:09;8.89;69.31
28175;SHT30;59417;44.788;10.334;2024-01-15T12:36:40;9.01;69.40
28175;SHT30;59417;44.788;10.334;2024-01-15T12:39:11;9.07;68.97
28175;SHT30;59417;44.788;10.334;2024-01-15T12:41:38;9.14;69.79
28175;SHT30;59417;44.788;10.334;2024-01-15T12:44:04;9.25;69.64
28175;SHT30;59417;44.788;10.334;2024-01-15T12:46:34;9.24;69.55
28175;SHT30;59417;44.788;10.334;2024-01-15T12:49:04;9.38;68.80
28175;SHT30;59417;44.788;10.334;2024-01-15T12:51:29;9.45;68.58
28175;SHT30;59417;44.788;10.334;2024-01-15T12:53:58;9.59;68.62
28175;SHT30;59417;44.788;10.334;2024-01-15T12:56:24;9.28;66.72
28175;SHT30;59417;44.788;10.334;2024-01-15T13:01:34;9.06;68.15
28175;SHT30;59417;44.788;10.334;2024-01-15T13:04:04;9.21;67.58
28175;SHT30;59417;44.788;10.334;2024-01-15T13:06:48;8.89;67.85
28175;SHT30;59417;44.788;10.334;2024-01-15T13:12:26;8.83;68.20
28175;SHT30;59417;44.788;10.334;2024-01-15T13:14:53;8.63;69.03
28175;SHT30;59417;44.788;10.334;2024-01-15T13:17:22;8.59;69.54
28175;SHT30;59417;44.788;10.334;2024-01-15T13:19:55;8.74;69.31
28175;SHT30;59417;44.788;10.334;2024-01-15T13:22:21;8.83;69.13
28175;SHT30;59417;44.788;10.334;2024-01-15T13:24:49;8.97;69.46
28175;SHT30;59417;44.788;10.334;2024-01-15T13:30:23;9.38;67.36
28175;SHT30;59417;44.788;10.334;2024-01-15T13:32:57;9.30;68.67
28175;SHT30;59417;44.788;10.334;2024-01-15T13:35:37;9.47;69.27
28175;SHT30;59417;44.788;10.334;2024-01-15T13:38:08;9.61;66.76
28175;SHT30;59417;44.788;10.334;2024-01-15T13:40:34;9.58;67.03
28175;SHT30;59417;44.788;10.334;2024-01-15T13:45:59;9.51;67.51
28175;SHT30;59417;44.788;10.334;2024-01-15T13:48:30;9.47;67.15
28175;SHT30;59417;44.788;10.334;2024-01-15T13:50:59;9.69;66.49
28175;SHT30;59417;44.788;10.334;2024-01-15T13:53:25;9.57;66.86
28175;SHT30;59417;44.788;10.334;2024-01-15T13:55:51;9.68;66.39
28175;SHT30;59417;44.788;10.334;2024-01-15T13:58:17;9.69;66.19
28175;SHT30;59417;44.788;10.334;2024-01-15T14:00:45;9.57;67.04
28175;SHT30;59417;44.788;10.334;2024-01-15T14:03:11;9.61;67.22
28175;SHT30;59417;44.788;10.334;2024-01-15T14:05:37;9.63;66.71
28175;SHT30;59417;44.788;10.334;2024-01-15T14:08:12;9.59;67.41
28175;SHT30;59417;44.788;10.334;2024-01-15T14:11:05;9.65;68.43
28175;SHT30;59417;44.788;10.334;2024-01-15T14:13:53;9.88;68.06
28175;SHT30;59417;44.788;10.334;2024-01-15T14:17:24;9.95;66.61
28175;SHT30;59417;44.788;10.334;2024-01-15T14:20:09;10.12;65.81
28175;SHT30;59417;44.788;10.334;2024-01-15T14:22:59;10.08;66.00
28175;SHT30;59417;44.788;10.334;2024-01-15T14:25:30;10.14;66.56
28175;SHT30;59417;44.788;10.334;2024-01-15T14:27:58;10.09;66.04
28175;SHT30;59417;44.788;10.334;2024-01-15T14:30:24;10.16;65.31
28175;SHT30;59417;44.788;10.334;2024-01-15T14:32:51;9.86;65.90
28175;SHT30;59417;44.788;10.334;2024-01-15T14:35:19;9.89;66.03
28175;SHT30;59417;44.788;10.334;2024-01-15T14:37:48;9.75;66.36
28175;SHT30;59417;44.788;10.334;2024-01-15T14:43:18;9.39;67.37
28175;SHT30;59417;44.788;10.334;2024-01-15T14:45:43;9.35;67.53
28175;SHT30;59417;44.788;10.334;2024-01-15T14:48:10;9.31;67.67
28175;SHT30;59417;44.788;10.334;2024-01-15T14:50:36;9.11;68.44
28175;SHT30;59417;44.788;10.334;2024-01-15T14:53:02;8.97;69.90
28175;SHT30;59417;44.788;10.334;2024-01-15T14:55:32;9.06;69.07
28175;SHT30;59417;44.788;10.334;2024-01-15T14:58:36;8.94;70.64
28175;SHT30;59417;44.788;10.334;2024-01-15T15:01:35;8.94;71.10
28175;SHT30;59417;44.788;10.334;2024-01-15T15:04:01;9.21;69.83
28175;SHT30;59417;44.788;10.334;2024-01-15T15:06:27;9.10;69.98
28175;SHT30;59417;44.788;10.334;2024-01-15T15:08:54;9.06;70.96
28175;SHT30;59417;44.788;10.334;2024-01-15T15:11:26;9.03;71.12
28175;SHT30;59417;44.788;10.334;2024-01-15T15:13:52;9.06;71.42
28175;SHT30;59417;44.788;10.334;2024-01-15T15:16:18;9.06;72.19
28175;SHT30;59417;44.788;10.334;2024-01-15T15:18:49;9.00;71.55
28175;SHT30;59417;44.788;10.334;2024-01-15T15:33:36;8.84;71.38
28175;SHT30;59417;44.788;10.334;2024-01-15T17:06:27;7.15;76.35
28175;SHT30;59417;44.788;10.334;2024-01-15T17:12:56;7.18;76.09
28175;SHT30;59417;44.788;10.334;2024-01-15T17:30:57;7.14;76.96
28175;SHT30;59417;44.788;10.334;2024-01-15T17:33:24;7.08;77.23
28175;SHT30;59417;44.788;10.334;2024-01-15T17:35:53;7.05;77.39
28175;SHT30;59417;44.788;10.334;2024-01-15T17:38:23;7.19;76.00
28175;SHT30;59417;44.788;10.334;2024-01-15T17:40:50;6.88;77.31
28175;SHT30;59417;44.788;10.334;2024-01-15T17:43:16;6.89;77.56
28175;SHT30;59417;44.788;10.334;2024-01-15T17:45:42;7.08;76.79
28175;SHT30;59417;44.788;10.334;2024-01-15T17:48:14;7.05;77.14
28175;SHT30;59417;44.788;10.334;2024-01-15T17:51:03;6.98;76.41
28175;SHT30;59417;44.788;10.334;2024-01-15T17:53:28;6.68;77.48
28175;SHT30;59417;44.788;10.334;2024-01-15T17:55:56;6.74;77.56
28175;SHT30;59417;44.788;10.334;2024-01-15T17:58:23;6.64;77.89
28175;SHT30;59417;44.788;10.334;2024-01-15T18:00:49;6.63;77.78
28175;SHT30;59417;44.788;10.334;2024-01-15T18:03:19;6.70;78.00
28175;SHT30;59417;44.788;10.334;2024-01-15T18:05:48;6.85;77.45
28175;SHT30;59417;44.788;10.334;2024-01-15T18:08:15;6.99;76.84
28175;SHT30;59417;44.788;10.334;2024-01-15T18:10:41;6.84;77.09
28175;SHT30;59417;44.788;10.334;2024-01-15T18:13:10;6.73;77.29
28175;SHT30;59417;44.788;10.334;2024-01-15T18:15:36;6.81;77.02
28175;SHT30;59417;44.788;10.334;2024-01-15T18:18:01;6.82;76.66
28175;SHT30;59417;44.788;10.334;2024-01-15T18:20:30;6.70;77.00
28175;SHT30;59417;44.788;10.334;2024-01-15T18:22:59;6.85;76.45
28175;SHT30;59417;44.788;10.334;2024-01-15T18:25:25;6.82;76.51
28175;SHT30;59417;44.788;10.334;2024-01-15T18:27:56;6.67;77.17
28175;SHT30;59417;44.788;10.334;2024-01-15T18:30:22;6.61;77.26
28175;SHT30;59417;44.788;10.334;2024-01-15T18:32:47;6.53;77.56
28175;SHT30;59417;44.788;10.334;2024-01-15T18:35:13;6.50;77.18
28175;SHT30;59417;44.788;10.334;2024-01-15T18:37:39;6.37;77.98
28175;SHT30;59417;44.788;10.334;2024-01-15T18:40:05;6.40;77.94
28175;SHT30;59417;44.788;10.334;2024-01-15T18:42:32;6.50;77.72
28175;SHT30;59417;44.788;10.334;2024-01-15T18:45:01;6.45;77.67
28175;SHT30;59417;44.788;10.334;2024-01-15T18:47:27;6.53;76.92
28175;SHT30;59417;44.788;10.334;2024-01-15T18:49:53;6.53;76.91